^^
Datos históricos de la estación: Murcia-Puente Tocinos
Diario Informe para Diciembre 25, 2019 Unidades:  Métrico    Ingés   Ambas
Diario Semanal Mensual Anual
  Máxima: Mínima: Promedio:
Temperatura: 21.3 °C 7.8 °C 13 °C
Punto de rocio: 8.3 °C 5.1 °C 6.8 °C
Humedad: 83% 41% 68%
Velocidad viento: 9.5km/h 0km/h 6.2km/h
Racha viento: 16.1km/h - -
Viento- - Sur
Presión: 1025.3 hPa 1021.6 hPa -
Precipitación: 0.0 mm    
 
 
Tabla de datos para Diciembre 25, 2019
Hora Temperatura Punto de rocio Presión Viento Velocidad viento Racha viento Humedad Intensidad lluvia(por hora) Nubes
00:04 12.1 °C 7.6 °C 1025.3 hPa Sur 6.6 km/h 10 km/h 74% 0.0 mm
00:09 12.1 °C 7.6 °C 1025.3 hPa Sur 6.5 km/h 11.1 km/h 74% 0.0 mm
00:14 12.1 °C 7.6 °C 1025.3 hPa Sur 7.1 km/h 11.3 km/h 74% 0.0 mm
00:19 12 °C 7.5 °C 1025.3 hPa Sur 7.6 km/h 11.9 km/h 74% 0.0 mm
00:24 11.9 °C 7.4 °C 1025.3 hPa Sur 7.6 km/h 11.3 km/h 74% 0.0 mm
00:29 11.8 °C 7.3 °C 1025.1 hPa Sur 7.6 km/h 11.3 km/h 74.1% 0.0 mm
00:34 11.7 °C 7.4 °C 1025.1 hPa Sur 7.6 km/h 11.3 km/h 75% 0.0 mm
00:39 11.6 °C 7.3 °C 1025.1 hPa Sur 7.6 km/h 11.1 km/h 75% 0.0 mm
00:44 11.6 °C 7.3 °C 1025.1 hPa Sur 7.2 km/h 11.3 km/h 75% 0.0 mm
00:49 11.6 °C 7.5 °C 1025.1 hPa SSO 6.9 km/h 11.9 km/h 76% 0.0 mm
00:54 11.7 °C 7.6 °C 1025.1 hPa SSO 7.8 km/h 11.3 km/h 76% 0.0 mm
00:59 11.7 °C 7.5 °C 1025.1 hPa SSO 8.4 km/h 11.3 km/h 75.6% 0.0 mm
01:04 11.7 °C 7.4 °C 1025.1 hPa Sur 7.1 km/h 9.7 km/h 75.1% 0.0 mm
01:09 11.7 °C 7.4 °C 1025.1 hPa Sur 6.5 km/h 10 km/h 75% 0.0 mm
01:14 11.5 °C 7.4 °C 1025.0 hPa Sur 7.1 km/h 10 km/h 75.9% 0.0 mm
01:19 11.4 °C 7.3 °C 1025.0 hPa Sur 7.6 km/h 11.1 km/h 76% 0.0 mm
01:24 11.4 °C 7.4 °C 1025.0 hPa Sur 7.6 km/h 11.9 km/h 76.6% 0.0 mm
01:29 11.4 °C 7.4 °C 1024.9 hPa Sur 7.6 km/h 11.3 km/h 76.2% 0.0 mm
01:34 11.3 °C 7.3 °C 1024.9 hPa SSO 6.9 km/h 8.4 km/h 76.6% 0.0 mm
01:39 11.3 °C 7.4 °C 1024.9 hPa SSO 6.5 km/h 8.4 km/h 77% 0.0 mm
01:44 11.4 °C 7.5 °C 1024.7 hPa SO 6.1 km/h 9.5 km/h 77% 0.0 mm
01:49 11.4 °C 7.5 °C 1024.7 hPa Sur 5.8 km/h 9.7 km/h 76.7% 0.0 mm
01:54 11.3 °C 7.1 °C 1024.7 hPa SSE 5.8 km/h 8.4 km/h 75.3% 0.0 mm
01:59 11.1 °C 7 °C 1024.7 hPa SSE 5.8 km/h 8 km/h 75.7% 0.0 mm
02:04 10.9 °C 6.8 °C 1024.7 hPa SSE 5.3 km/h 8 km/h 76% 0.0 mm
02:09 10.8 °C 6.9 °C 1024.7 hPa Sur 5 km/h 8 km/h 76.7% 0.0 mm
02:14 10.7 °C 6.7 °C 1024.7 hPa SSE 5 km/h 9.3 km/h 76.3% 0.0 mm
02:19 10.5 °C 6.6 °C 1024.7 hPa SSE 5 km/h 9.7 km/h 76.9% 0.0 mm
02:24 10.3 °C 6.5 °C 1024.7 hPa SSE 5.5 km/h 9.7 km/h 77% 0.0 mm
02:29 10.3 °C 6.4 °C 1024.6 hPa SSE 5.8 km/h 9.5 km/h 77% 0.0 mm
02:34 10.2 °C 6.3 °C 1024.6 hPa SSE 5.8 km/h 10 km/h 77% 0.0 mm
02:39 10 °C 6.3 °C 1024.6 hPa Sur 5.8 km/h 9.7 km/h 77.5% 0.0 mm
02:44 9.9 °C 6.2 °C 1024.5 hPa SSE 6.5 km/h 10 km/h 78% 0.0 mm
02:49 9.7 °C 6.1 °C 1024.5 hPa SSE 6.9 km/h 9.7 km/h 78% 0.0 mm
02:54 9.6 °C 6 °C 1024.6 hPa SSE 6.9 km/h 10 km/h 78.3% 0.0 mm
02:59 9.5 °C 6.1 °C 1024.6 hPa SSE 6.9 km/h 9.7 km/h 79% 0.0 mm
03:04 9.4 °C 6 °C 1024.6 hPa SSE 6.9 km/h 11.1 km/h 79% 0.0 mm
03:09 9.4 °C 5.9 °C 1024.6 hPa SSE 6.9 km/h 11.9 km/h 79% 0.0 mm
03:14 9.3 °C 6 °C 1024.6 hPa SSE 7.8 km/h 11.3 km/h 80% 0.0 mm
03:19 9.3 °C 6 °C 1024.6 hPa SSE 8.4 km/h 13 km/h 80% 0.0 mm
03:24 9.2 °C 5.9 °C 1024.6 hPa SSE 8.4 km/h 12.9 km/h 80% 0.0 mm
03:29 9.2 °C 5.9 °C 1024.5 hPa SSE 8.4 km/h 11.9 km/h 80.4% 0.0 mm
03:34 9.1 °C 6 °C 1024.5 hPa Sur 7.9 km/h 11.9 km/h 81% 0.0 mm
03:39 9.1 °C 6 °C 1024.5 hPa SSE 7.6 km/h 11.3 km/h 81% 0.0 mm
03:44 9.1 °C 6 °C 1024.4 hPa Sur 8.1 km/h 13 km/h 81% 0.0 mm
03:49 9.2 °C 6.1 °C 1024.4 hPa Sur 8.4 km/h 13 km/h 81% 0.0 mm
03:54 9.2 °C 6.1 °C 1024.4 hPa Sur 8.4 km/h 12.9 km/h 81% 0.0 mm
03:59 9.3 °C 6.2 °C 1024.4 hPa Sur 8.4 km/h 11.3 km/h 81% 0.0 mm
04:04 9.3 °C 6.2 °C 1024.4 hPa Sur 7.4 km/h 11.3 km/h 81% 0.0 mm
04:09 9.3 °C 6.3 °C 1024.4 hPa Sur 6.9 km/h 9.7 km/h 81% 0.0 mm
04:14 9.4 °C 6.3 °C 1024.4 hPa Sur 6.6 km/h 10 km/h 81% 0.0 mm
04:19 9.4 °C 6.3 °C 1024.4 hPa Sur 6.5 km/h 11.9 km/h 81% 0.0 mm
04:24 9.5 °C 6.4 °C 1024.4 hPa Sur 7.1 km/h 11.3 km/h 81% 0.0 mm
04:29 9.6 °C 6.5 °C 1024.3 hPa SSO 7.6 km/h 11.3 km/h 80.9% 0.0 mm
04:34 9.7 °C 6.4 °C 1024.3 hPa SSO 7.6 km/h 11.3 km/h 80% 0.0 mm
04:39 9.8 °C 6.5 °C 1024.3 hPa SSO 7.6 km/h 11.3 km/h 80% 0.0 mm
04:44 9.8 °C 6.5 °C 1024.3 hPa SSO 6.9 km/h 9.7 km/h 80% 0.0 mm
04:49 9.8 °C 6.5 °C 1024.3 hPa SSO 6.5 km/h 10.3 km/h 80% 0.0 mm
04:54 9.8 °C 6.5 °C 1024.3 hPa Sur 6.7 km/h 9.7 km/h 80% 0.0 mm
04:59 9.8 °C 6.5 °C 1024.1 hPa Sur 6.9 km/h 9.7 km/h 80% 0.0 mm
05:04 9.7 °C 6.4 °C 1024.1 hPa Sur 6.9 km/h 11.1 km/h 80% 0.0 mm
05:09 9.7 °C 6.4 °C 1024.1 hPa Sur 6.9 km/h 11.3 km/h 80% 0.0 mm
05:14 9.7 °C 6.4 °C 1024.0 hPa SSO 7.3 km/h 11.3 km/h 80% 0.0 mm
05:19 9.6 °C 6.3 °C 1024.0 hPa Sur 7.6 km/h 11.3 km/h 80% 0.0 mm
05:24 9.6 °C 6.3 °C 1024.1 hPa Sur 6.9 km/h 9.7 km/h 80% 0.0 mm
05:29 9.4 °C 6.2 °C 1024.1 hPa Sur 6.5 km/h 9.7 km/h 80.3% 0.0 mm
05:34 9.3 °C 6.2 °C 1024.1 hPa Sur 6.5 km/h 9.7 km/h 81% 0.0 mm
05:39 9.2 °C 6.1 °C 1024.1 hPa SSO 6.5 km/h 11.1 km/h 81% 0.0 mm
05:44 9.2 °C 6.1 °C 1024.0 hPa SSO 6.5 km/h 11.3 km/h 81% 0.0 mm
05:49 9.2 °C 6.1 °C 1024.0 hPa SSO 6.5 km/h 11.3 km/h 81% 0.0 mm
05:54 9.2 °C 6.1 °C 1024.0 hPa SSO 6.8 km/h 13 km/h 81% 0.0 mm
05:59 9.1 °C 6 °C 1024.0 hPa Sur 6.9 km/h 12.9 km/h 81% 0.0 mm
06:04 9.1 °C 6 °C 1024.0 hPa Sur 7.4 km/h 13 km/h 81% 0.0 mm
06:09 8.9 °C 5.8 °C 1024.0 hPa Sur 7.6 km/h 12.9 km/h 81% 0.0 mm
06:14 8.8 °C 5.7 °C 1024.0 hPa SSE 8.1 km/h 11.3 km/h 81% 0.0 mm
06:19 8.6 °C 5.5 °C 1024.0 hPa SSE 8.4 km/h 11.9 km/h 81% 0.0 mm
06:24 8.4 °C 5.4 °C 1024.0 hPa Sur 8.4 km/h 13 km/h 81.7% 0.0 mm
06:29 8.3 °C 5.4 °C 1024.0 hPa Sur 8.4 km/h 13 km/h 82% 0.0 mm
06:34 8.2 °C 5.3 °C 1024.0 hPa Sur 8.6 km/h 13 km/h 82% 0.0 mm
06:39 8.3 °C 5.5 °C 1024.0 hPa Sur 8.7 km/h 13 km/h 82.8% 0.0 mm
06:44 8.3 °C 5.6 °C 1024.0 hPa Sur 9.2 km/h 14.8 km/h 83% 0.0 mm
06:49 8.5 °C 5.7 °C 1024.0 hPa Sur 9.5 km/h 14.8 km/h 82.7% 0.0 mm
06:54 8.6 °C 5.7 °C 1024.0 hPa SSO 9 km/h 14.8 km/h 82% 0.0 mm
06:59 8.7 °C 5.8 °C 1024.0 hPa SSO 8.7 km/h 14.5 km/h 82% 0.0 mm
07:04 8.8 °C 5.9 °C 1024.0 hPa SSO 7.5 km/h 11.3 km/h 82% 0.0 mm
07:09 8.8 °C 5.8 °C 1024.0 hPa SSO 6.9 km/h 11.3 km/h 81.2% 0.0 mm
07:14 8.8 °C 5.7 °C 1024.0 hPa SSO 6.6 km/h 10.3 km/h 81% 0.0 mm
07:19 8.9 °C 5.8 °C 1024.0 hPa SSO 6.5 km/h 11.3 km/h 81% 0.0 mm
07:24 8.9 °C 5.9 °C 1024.1 hPa SSO 6.8 km/h 11.1 km/h 81% 0.0 mm
07:29 9.1 °C 5.9 °C 1024.1 hPa SSO 6.9 km/h 11.3 km/h 80.6% 0.0 mm
07:34 8.9 °C 5.7 °C 1024.1 hPa SSE 6.9 km/h 10 km/h 80% 0.0 mm
07:39 8.7 °C 5.4 °C 1024.1 hPa SSE 6.9 km/h 9.7 km/h 80% 0.0 mm
07:44 8.3 °C 5.2 °C 1024.1 hPa SSE 6.9 km/h 10 km/h 80.8% 0.0 mm
07:49 8 °C 5.1 °C 1024.1 hPa SSE 6.9 km/h 9.7 km/h 81.6% 0.0 mm
07:54 7.9 °C 5.1 °C 1024.2 hPa SSE 6.3 km/h 9.7 km/h 82.5% 0.0 mm
07:59 7.8 °C 5.1 °C 1024.2 hPa SSE 5.8 km/h 8 km/h 83% 0.0 mm
08:04 7.8 °C 5.1 °C 1024.2 hPa SSE 5.3 km/h 8.4 km/h 83% 0.0 mm
08:09 7.8 °C 5.1 °C 1024.3 hPa SSE 5 km/h 10 km/h 83% 0.0 mm
08:14 7.8 °C 5.1 °C 1024.3 hPa Sur 5.9 km/h 10.3 km/h 83% 0.0 mm
08:19 7.8 °C 5.1 °C 1024.3 hPa Sur 6.5 km/h 11.3 km/h 83% 0.0 mm
08:24 7.8 °C 5.1 °C 1024.4 hPa Sur 7.1 km/h 11.3 km/h 83% 0.0 mm
08:29 7.8 °C 5.1 °C 1024.4 hPa Sur 7.6 km/h 9.7 km/h 83% 0.0 mm
08:34 7.9 °C 5.2 °C 1024.4 hPa SSE 6.9 km/h 11.1 km/h 83% 0.0 mm
08:39 7.9 °C 5.2 °C 1024.6 hPa SSE 6.5 km/h 11.3 km/h 83% 0.0 mm
08:44 7.9 °C 5.2 °C 1024.6 hPa Sur 7.6 km/h 13 km/h 83% 0.0 mm
08:49 7.9 °C 5.2 °C 1024.6 hPa Sur 8.4 km/h 13 km/h 83% 0.0 mm
08:54 8.1 °C 5.3 °C 1024.7 hPa Sur 8.6 km/h 13 km/h 83% 0.0 mm
08:59 8.2 °C 5.4 °C 1024.7 hPa SSE 8.7 km/h 13 km/h 82.8% 0.0 mm
09:04 8.2 °C 5.4 °C 1024.7 hPa Sur 8.5 km/h 12.9 km/h 82% 0.0 mm
09:09 8.3 °C 5.4 °C 1024.7 hPa Sur 8.4 km/h 13 km/h 82% 0.0 mm
09:14 8.4 °C 5.5 °C 1024.7 hPa Sur 8.4 km/h 12.9 km/h 82% 0.0 mm
09:19 8.5 °C 5.5 °C 1024.7 hPa Sur 8.4 km/h 13.7 km/h 81% 0.0 mm
09:24 8.7 °C 5.4 °C 1024.8 hPa Sur 8.6 km/h 14.5 km/h 80.3% 0.0 mm
09:29 8.8 °C 5.5 °C 1024.8 hPa SSO 8.7 km/h 11.3 km/h 80% 0.0 mm
09:34 8.9 °C 5.5 °C 1024.8 hPa SSO 7.3 km/h 9.7 km/h 79.1% 0.0 mm
09:39 9.1 °C 5.5 °C 1024.9 hPa SSO 6.5 km/h 11.9 km/h 78.2% 0.0 mm
09:44 9.2 °C 5.4 °C 1024.9 hPa SSO 6.5 km/h 11.3 km/h 77.2% 0.0 mm
09:49 9.3 °C 5.5 °C 1024.9 hPa Sur 6.5 km/h 9.7 km/h 77% 0.0 mm
09:54 9.6 °C 5.6 °C 1025.0 hPa SSE 6.5 km/h 9.7 km/h 76.5% 0.0 mm
09:59 9.8 °C 5.7 °C 1025.0 hPa SSE 6.5 km/h 9.7 km/h 76% 0.0 mm
10:04 10 °C 5.8 °C 1025.0 hPa Sur 6.5 km/h 10 km/h 75.3% 0.0 mm
10:09 10.1 °C 5.9 °C 1025.0 hPa Sur 6.5 km/h 9.7 km/h 75% 0.0 mm
10:14 10.2 °C 5.9 °C 1025.0 hPa SSE 6.5 km/h 9.7 km/h 75% 0.0 mm
10:19 10.3 °C 6 °C 1025.0 hPa SSE 6.5 km/h 9.7 km/h 74.3% 0.0 mm
10:24 10.5 °C 6 °C 1025.1 hPa Sur 6.5 km/h 13.7 km/h 73.7% 0.0 mm
10:29 10.6 °C 6 °C 1025.1 hPa Sur 6.5 km/h 14.5 km/h 73% 0.0 mm
10:34 10.8 °C 6.2 °C 1025.1 hPa Sur 7.1 km/h 11.3 km/h 73% 0.0 mm
10:39 11 °C 6.2 °C 1025.2 hPa Sur 7.6 km/h 13 km/h 72.4% 0.0 mm
10:44 11.2 °C 6.3 °C 1025.2 hPa Sur 7.6 km/h 13 km/h 71.9% 0.0 mm
10:49 11.3 °C 6.3 °C 1025.2 hPa Sur 7.6 km/h 13 km/h 71.3% 0.0 mm
10:54 11.6 °C 6.4 °C 1025.2 hPa Sur 7.6 km/h 11.3 km/h 70.2% 0.0 mm
10:59 11.8 °C 6.4 °C 1025.2 hPa SSO 7.6 km/h 13 km/h 69.2% 0.0 mm
11:04 12 °C 6.4 °C 1025.2 hPa SSO 8.1 km/h 12.9 km/h 68.9% 0.0 mm
11:09 12.2 °C 6.4 °C 1025.2 hPa SSO 8.4 km/h 11.3 km/h 68.2% 0.0 mm
11:14 12.3 °C 6.5 °C 1025.2 hPa Sur 8.4 km/h 11.9 km/h 67.6% 0.0 mm
11:19 12.6 °C 6.6 °C 1025.2 hPa Sur 8.4 km/h 13 km/h 66.9% 0.0 mm
11:24 12.8 °C 6.6 °C 1025.2 hPa Sur 8.4 km/h 12.9 km/h 66.1% 0.0 mm
11:29 12.9 °C 6.6 °C 1025.1 hPa Sur 8.4 km/h 11.3 km/h 65.4% 0.0 mm
11:34 13.1 °C 6.6 °C 1025.1 hPa SSO 7.9 km/h 11.3 km/h 64.8% 0.0 mm
11:39 13.2 °C 6.6 °C 1025.1 hPa Sur 7.6 km/h 11.9 km/h 64.2% 0.0 mm
11:44 13.5 °C 6.6 °C 1024.9 hPa Sur 7.2 km/h 11.3 km/h 63.3% 0.0 mm
11:49 13.7 °C 6.6 °C 1024.9 hPa SSO 6.9 km/h 11.1 km/h 62.2% 0.0 mm
11:54 13.7 °C 6.6 °C 1024.9 hPa SSO 6.9 km/h 11.3 km/h 62% 0.0 mm
11:59 13.8 °C 6.6 °C 1024.9 hPa SSO 6.9 km/h 11.3 km/h 61.7% 0.0 mm
12:04 13.9 °C 6.5 °C 1024.9 hPa Sur 6.9 km/h 11.3 km/h 61.1% 0.0 mm
12:09 14 °C 6.6 °C 1024.9 hPa Sur 6.9 km/h 11.9 km/h 61.2% 0.0 mm
12:14 14.2 °C 6.6 °C 1024.7 hPa Sur 6.9 km/h 11.3 km/h 60.3% 0.0 mm
12:19 14.3 °C 6.7 °C 1024.7 hPa SSO 6.9 km/h 11.3 km/h 60.2% 0.0 mm
12:24 14.4 °C 6.6 °C 1024.7 hPa SSO 6.9 km/h 11.3 km/h 59.5% 0.0 mm
12:29 14.6 °C 6.6 °C 1024.4 hPa SSO 6.9 km/h 11.3 km/h 58.8% 0.0 mm
12:34 14.8 °C 6.5 °C 1024.4 hPa SSO 6.6 km/h 9.7 km/h 57.6% 0.0 mm
12:39 15 °C 6.4 °C 1024.4 hPa SSO 6.5 km/h 9.7 km/h 56.6% 0.0 mm
12:44 15.2 °C 6.3 °C 1024.0 hPa SSO 6.1 km/h 9.7 km/h 55.3% 0.0 mm
12:49 15.3 °C 6.3 °C 1024.0 hPa SSO 5.8 km/h 10 km/h 54.7% 0.0 mm
12:54 15.5 °C 6.2 °C 1024.0 hPa SSO 6.2 km/h 9.7 km/h 54.1% 0.0 mm
12:59 15.7 °C 6.3 °C 1023.7 hPa Sur 6.5 km/h 9.7 km/h 53.5% 0.0 mm
13:04 15.9 °C 6.2 °C 1023.7 hPa SSE 6 km/h 10 km/h 52.5% 0.0 mm
13:09 16.1 °C 6.3 °C 1023.7 hPa Sur 5.8 km/h 9.7 km/h 52% 0.0 mm
13:14 16.3 °C 6.4 °C 1023.4 hPa Sur 6.2 km/h 9.7 km/h 52% 0.0 mm
13:19 16.5 °C 6.5 °C 1023.4 hPa OSO 6.5 km/h 9.7 km/h 51.4% 0.0 mm
13:24 16.7 °C 6.4 °C 1023.4 hPa OSO 6.1 km/h 9.7 km/h 51% 0.0 mm
13:29 16.7 °C 6.5 °C 1023.1 hPa SSO 5.8 km/h 9.7 km/h 51% 0.0 mm
13:34 16.8 °C 6.7 °C 1023.1 hPa SSO 5.3 km/h 9.7 km/h 51.4% 0.0 mm
13:39 16.9 °C 6.7 °C 1023.1 hPa SSO 5 km/h 11.1 km/h 51.1% 0.0 mm
13:44 17.2 °C 6.8 °C 1022.9 hPa Sur 5.9 km/h 11.3 km/h 50.6% 0.0 mm
13:49 17.3 °C 6.8 °C 1022.9 hPa Sur 6.5 km/h 9.7 km/h 50.2% 0.0 mm
13:54 17.5 °C 7.1 °C 1022.9 hPa Sur 6.1 km/h 9.7 km/h 50.3% 0.0 mm
13:59 17.7 °C 7.2 °C 1022.7 hPa SSO 5.8 km/h 11.1 km/h 50% 0.0 mm
14:04 17.8 °C 7.2 °C 1022.7 hPa SSO 6.2 km/h 11.3 km/h 50% 0.0 mm
14:09 17.9 °C 7.3 °C 1022.7 hPa SSO 6.5 km/h 11.3 km/h 50% 0.0 mm
14:14 18.1 °C 7.3 °C 1022.3 hPa Sur 6.8 km/h 11.3 km/h 49.4% 0.0 mm
14:19 18.2 °C 7.3 °C 1022.3 hPa SSO 6.9 km/h 13 km/h 49% 0.0 mm
14:24 18.3 °C 7.4 °C 1022.3 hPa SSO 7.8 km/h 13 km/h 49% 0.0 mm
14:29 18.3 °C 7.4 °C 1022.2 hPa SSO 8.4 km/h 13 km/h 49.1% 0.0 mm
14:34 18.4 °C 7.5 °C 1022.2 hPa Sur 7.9 km/h 13 km/h 49% 0.0 mm
14:39 18.4 °C 7.5 °C 1022.2 hPa Sur 7.6 km/h 12.2 km/h 49% 0.0 mm
14:44 18.4 °C 7.5 °C 1021.9 hPa SSO 8.1 km/h 13 km/h 49% 0.0 mm
14:49 18.5 °C 7.5 °C 1021.9 hPa SSO 8.4 km/h 12.9 km/h 48.9% 0.0 mm
14:54 18.6 °C 7.5 °C 1021.9 hPa SSE 7.9 km/h 11.3 km/h 48.4% 0.0 mm
14:59 18.8 °C 7.5 °C 1021.8 hPa SSE 7.6 km/h 11.3 km/h 48.1% 0.0 mm
15:04 19 °C 7.7 °C 1021.8 hPa SSE 7.1 km/h 11.3 km/h 47.9% 0.0 mm
15:09 19.1 °C 7.5 °C 1021.8 hPa Sur 6.9 km/h 11.3 km/h 47% 0.0 mm
15:14 19.2 °C 7.6 °C 1021.8 hPa SO 6.2 km/h 9.7 km/h 46.8% 0.0 mm
15:19 19.3 °C 7.4 °C 1021.8 hPa SO 5.8 km/h 9.7 km/h 46.1% 0.0 mm
15:24 19.4 °C 7.5 °C 1021.8 hPa Sur 5.1 km/h 9.3 km/h 46% 0.0 mm
15:29 19.5 °C 7.5 °C 1021.7 hPa SE 4.7 km/h 9.7 km/h 46% 0.0 mm
15:34 19.6 °C 7.7 °C 1021.7 hPa SSE 4.2 km/h 8 km/h 46% 0.0 mm
15:39 19.8 °C 7.7 °C 1021.7 hPa Sur 3.9 km/h 8 km/h 45.6% 0.0 mm
15:44 19.9 °C 7.3 °C 1021.6 hPa SO 3.9 km/h 8.4 km/h 44.1% 0.0 mm
15:49 20.1 °C 7.4 °C 1021.6 hPa SO 3.9 km/h 8 km/h 44% 0.0 mm
15:54 20.2 °C 7.4 °C 1021.6 hPa SO 3.2 km/h 4.8 km/h 43.5% 0.0 mm
15:59 20.5 °C 7.5 °C 1021.6 hPa SSO 2.9 km/h 5 km/h 43.1% 0.0 mm
16:04 20.7 °C 7.5 °C 1021.6 hPa SSE 2.5 km/h 5.6 km/h 42.6% 0.0 mm
16:09 20.8 °C 7.5 °C 1021.6 hPa Sur 2.2 km/h 6.9 km/h 42.3% 0.0 mm
16:14 20.8 °C 7.8 °C 1021.6 hPa Sur 2.2 km/h 8 km/h 43% 0.0 mm
16:19 20.8 °C 7.8 °C 1021.6 hPa SSO 2.2 km/h 8 km/h 43% 0.0 mm
16:24 20.8 °C 7.7 °C 1021.6 hPa SO 2.9 km/h 5.6 km/h 42.8% 0.0 mm
16:29 20.8 °C 7.6 °C 1021.6 hPa SSE 3.2 km/h 5.6 km/h 42.5% 0.0 mm
16:34 20.8 °C 7.5 °C 1021.6 hPa SE 2.6 km/h 5.6 km/h 42.3% 0.0 mm
16:39 20.8 °C 7.4 °C 1021.6 hPa SSO 2.2 km/h 5.8 km/h 42.1% 0.0 mm
16:44 20.9 °C 7.5 °C 1021.6 hPa SO 2.2 km/h 6.4 km/h 42% 0.0 mm
16:49 21.1 °C 7.6 °C 1021.6 hPa SO 2.2 km/h 3.2 km/h 41.9% 0.0 mm
16:54 21.2 °C 7.4 °C 1021.6 hPa SO 0.8 km/h   41% 0.0 mm
16:59 21.3 °C 7.5 °C 1021.6 hPa Calm   5 km/h 41% 0.0 mm
17:04 21.2 °C 7.6 °C 1021.6 hPa Calm   7.4 km/h 41.3% 0.0 mm
17:09 21.2 °C 7.7 °C 1021.6 hPa Calm   8 km/h 42% 0.0 mm
17:14 20.9 °C 7.6 °C 1021.6 hPa OSO 1.9 km/h 8 km/h 42% 0.0 mm
17:19 20.8 °C 7.7 °C 1021.6 hPa SSO 3.2 km/h 6.4 km/h 42.8% 0.0 mm
17:24 20.6 °C 7.6 °C 1021.6 hPa SSO 3.6 km/h 6.4 km/h 43% 0.0 mm
17:29 20.4 °C 7.4 °C 1021.6 hPa SSE 3.9 km/h 7.4 km/h 43% 0.0 mm
17:34 20.2 °C 7.4 °C 1021.6 hPa SSE 4.4 km/h 9.5 km/h 43.5% 0.0 mm
17:39 19.8 °C 7.3 °C 1021.6 hPa SSE 4.7 km/h 9.7 km/h 44.1% 0.0 mm
17:44 19.6 °C 7.5 °C 1021.6 hPa SSE 5.7 km/h 9.7 km/h 45.6% 0.0 mm
17:49 19.1 °C 7.6 °C 1021.6 hPa SSE 6.5 km/h 10 km/h 47.2% 0.0 mm
17:54 18.8 °C 7.5 °C 1021.8 hPa Sur 6.8 km/h 10 km/h 47.9% 0.0 mm
17:59 18.5 °C 7.5 °C 1021.8 hPa Sur 6.9 km/h 10 km/h 48.9% 0.0 mm
18:04 18.3 °C 7.6 °C 1021.8 hPa Sur 6.6 km/h 9.7 km/h 49.8% 0.0 mm
18:09 18.2 °C 7.7 °C 1021.9 hPa SSE 6.5 km/h 8 km/h 50.4% 0.0 mm
18:14 18 °C 7.7 °C 1021.9 hPa SE 5.3 km/h 8 km/h 51.2% 0.0 mm
18:19 17.8 °C 7.9 °C 1021.9 hPa SE 4.7 km/h 8 km/h 52.1% 0.0 mm
18:24 17.6 °C 7.9 °C 1022.0 hPa ESE 4.7 km/h 8 km/h 53% 0.0 mm
18:29 17.3 °C 7.8 °C 1022.0 hPa SE 4.7 km/h 8 km/h 53.8% 0.0 mm
18:34 17 °C 7.6 °C 1022.0 hPa SE 4.7 km/h 8 km/h 54% 0.0 mm
18:39 16.7 °C 7.6 °C 1022.1 hPa SE 4.7 km/h 9.3 km/h 54.9% 0.0 mm
18:44 16.5 °C 7.6 °C 1022.1 hPa SE 5.3 km/h 9.7 km/h 55.8% 0.0 mm
18:49 16.4 °C 7.7 °C 1022.1 hPa SE 5.8 km/h 8.4 km/h 56.3% 0.0 mm
18:54 16.3 °C 7.8 °C 1022.1 hPa SE 5.3 km/h 8 km/h 57% 0.0 mm
18:59 16.3 °C 7.8 °C 1022.1 hPa SE 5 km/h 8 km/h 57% 0.0 mm
19:04 16.2 °C 7.8 °C 1022.1 hPa SE 3.6 km/h 4.8 km/h 57.4% 0.0 mm
19:09 16 °C 7.8 °C 1022.3 hPa Sur 2.9 km/h 5.6 km/h 58% 0.0 mm
19:14 15.8 °C 7.8 °C 1022.3 hPa SSO 2.5 km/h 5.6 km/h 58.8% 0.0 mm
19:19 15.7 °C 7.8 °C 1022.3 hPa SSO 2.2 km/h 5.6 km/h 59.5% 0.0 mm
19:24 15.6 °C 7.8 °C 1022.4 hPa SSO 2.6 km/h 5 km/h 60% 0.0 mm
19:29 15.5 °C 7.8 °C 1022.4 hPa SSO 2.9 km/h 4.8 km/h 60% 0.0 mm
19:34 15.4 °C 7.9 °C 1022.4 hPa SSO 1.1 km/h   60.8% 0.0 mm
19:39 15.3 °C 7.9 °C 1022.4 hPa Calm     61.1% 0.0 mm
19:44 15.2 °C 8 °C 1022.4 hPa Calm     62% 0.0 mm
19:49 15.1 °C 7.9 °C 1022.4 hPa Calm     62% 0.0 mm
19:54 14.9 °C 7.9 °C 1022.6 hPa Calm     62.8% 0.0 mm
19:59 14.8 °C 8 °C 1022.6 hPa Calm     63.5% 0.0 mm
20:04 14.8 °C 8 °C 1022.6 hPa Calm     64% 0.0 mm
20:09 14.7 °C 8.1 °C 1022.6 hPa Calm     64.7% 0.0 mm
20:14 14.4 °C 8 °C 1022.6 hPa Calm   5.8 km/h 65% 0.0 mm
20:19 14.3 °C 8.1 °C 1022.6 hPa Calm   7.6 km/h 66% 0.0 mm
20:24 14.3 °C 8.1 °C 1022.7 hPa SSO 2.9 km/h 9.5 km/h 66% 0.0 mm
20:29 14.4 °C 8.1 °C 1022.7 hPa Sur 4.7 km/h 9.7 km/h 66% 0.0 mm
20:34 14.3 °C 8.1 °C 1022.7 hPa Sur 4.9 km/h 9.7 km/h 66% 0.0 mm
20:39 14.3 °C 8.2 °C 1022.8 hPa Sur 5 km/h 7.4 km/h 66.5% 0.0 mm
20:44 14.3 °C 8.3 °C 1022.8 hPa Sur 4.8 km/h 8 km/h 67% 0.0 mm
20:49 14.2 °C 8.2 °C 1022.8 hPa Sur 4.7 km/h 8 km/h 67.4% 0.0 mm
20:54 13.9 °C 8.1 °C 1022.8 hPa Sur 4.8 km/h 8.4 km/h 68% 0.0 mm
20:59 13.7 °C 8.1 °C 1022.8 hPa SSE 5 km/h 9.3 km/h 68.9% 0.0 mm
21:04 13.5 °C 8 °C 1022.8 hPa SE 5.5 km/h 10.3 km/h 69.1% 0.0 mm
21:09 13.2 °C 7.9 °C 1022.8 hPa SSE 5.8 km/h 11.9 km/h 70.1% 0.0 mm
21:14 12.8 °C 7.8 °C 1022.8 hPa SSE 6.5 km/h 11.3 km/h 71.6% 0.0 mm
21:19 12.4 °C 7.7 °C 1022.8 hPa SSE 6.9 km/h 11.3 km/h 72.8% 0.0 mm
21:24 12.1 °C 7.7 °C 1022.9 hPa SSE 7.9 km/h 13 km/h 74.2% 0.0 mm
21:29 11.9 °C 7.6 °C 1022.9 hPa SSE 8.4 km/h 12.9 km/h 75% 0.0 mm
21:34 11.8 °C 7.7 °C 1022.9 hPa SSE 7.9 km/h 9.7 km/h 75.9% 0.0 mm
21:39 11.7 °C 7.7 °C 1022.9 hPa Sur 7.6 km/h 11.9 km/h 76.1% 0.0 mm
21:44 11.8 °C 7.8 °C 1022.9 hPa SSO 6.9 km/h 11.3 km/h 76.3% 0.0 mm
21:49 12.1 °C 7.9 °C 1022.9 hPa SO 6.5 km/h 11.1 km/h 75.7% 0.0 mm
21:54 12.4 °C 8 °C 1022.9 hPa SSO 7.1 km/h 13 km/h 74.5% 0.0 mm
21:59 12.8 °C 8.1 °C 1022.8 hPa SSO 7.6 km/h 14.5 km/h 73% 0.0 mm
22:04 12.9 °C 7.9 °C 1022.8 hPa SO 8.9 km/h 14.5 km/h 72% 0.0 mm
22:09 12.9 °C 7.8 °C 1022.8 hPa SSO 9.5 km/h 14 km/h 71.4% 0.0 mm
22:14 12.8 °C 7.7 °C 1022.7 hPa SSO 9.5 km/h 15.6 km/h 71% 0.0 mm
22:19 12.7 °C 7.7 °C 1022.7 hPa SSO 9.5 km/h 16.1 km/h 71.4% 0.0 mm
22:24 12.6 °C 7.7 °C 1022.8 hPa SSO 9 km/h 12.9 km/h 72% 0.0 mm
22:29 12.6 °C 7.6 °C 1022.8 hPa Sur 8.7 km/h 9.7 km/h 72% 0.0 mm
22:34 12.4 °C 7.5 °C 1022.8 hPa Sur 6.4 km/h 9.7 km/h 72.1% 0.0 mm
22:39 12.3 °C 7.6 °C 1022.8 hPa Sur 5 km/h 11.1 km/h 73% 0.0 mm
22:44 12.2 °C 7.5 °C 1022.8 hPa SSO 6.2 km/h 11.3 km/h 73% 0.0 mm
22:49 12.2 °C 7.5 °C 1022.8 hPa Sur 6.9 km/h 11.3 km/h 73% 0.0 mm
22:54 12.1 °C 7.4 °C 1022.9 hPa Sur 6.9 km/h 11.3 km/h 73% 0.0 mm
22:59 11.9 °C 7.3 °C 1022.9 hPa Sur 6.9 km/h 9.7 km/h 73.1% 0.0 mm
23:04 11.9 °C 7.4 °C 1022.9 hPa Sur 6.6 km/h 10 km/h 74% 0.0 mm
23:09 11.8 °C 7.3 °C 1023.0 hPa Sur 6.5 km/h 9.7 km/h 74% 0.0 mm
23:14 11.7 °C 7.2 °C 1023.0 hPa SSE 6.1 km/h 10 km/h 74% 0.0 mm
23:19 11.5 °C 7.2 °C 1023.0 hPa Sur 5.8 km/h 11.1 km/h 75% 0.0 mm
23:24 11.4 °C 7.2 °C 1023.0 hPa Sur 6.5 km/h 11.3 km/h 75.5% 0.0 mm
23:29 11.4 °C 7.3 °C 1022.9 hPa Sur 6.9 km/h 11.9 km/h 76% 0.0 mm
23:34 11.4 °C 7.3 °C 1022.9 hPa Sur 7.9 km/h 11.9 km/h 75.8% 0.0 mm
23:39 11.3 °C 7 °C 1022.9 hPa Sur 8.4 km/h 11.9 km/h 75% 0.0 mm
23:44 11.3 °C 7 °C 1022.8 hPa Sur 8.4 km/h 13.7 km/h 75% 0.0 mm
23:49 11.2 °C 6.9 °C 1022.8 hPa Sur 8.4 km/h 14.5 km/h 75% 0.0 mm
23:54 11.2 °C 6.9 °C 1022.8 hPa SSO 8.4 km/h 14 km/h 75% 0.0 mm
23:59 11.2 °C 6.9 °C 1022.7 hPa SSO 8.4 km/h 14.8 km/h 75% 0.0 mm
Murcia-Puente Tocinos, España
Compliments of Weather Underground - 3 mb

La estación de MeteoMurcia.com, publica sus datos en los siguientes proyectos:

Weather Underground PWS IMURCIAP2 Meteoclimatic www.awekas.at

W3Counter
Web Analytics